createdAt,value
2017-07-01T00:01:01.157Z,14.10
2017-07-01T00:03:27.202Z,14.10
2017-07-01T00:05:53.240Z,14.10
2017-07-01T00:08:20.033Z,14.20
2017-07-01T00:10:46.069Z,14.20
2017-07-01T00:13:12.158Z,14.20
2017-07-01T00:15:38.204Z,14.30
2017-07-01T00:18:04.261Z,14.20
2017-07-01T00:20:30.324Z,14.20
2017-07-01T00:22:56.353Z,14.30
2017-07-01T00:25:22.413Z,14.30
2017-07-01T00:27:48.444Z,14.30
2017-07-01T00:30:14.484Z,14.30
2017-07-01T00:32:40.512Z,14.30
2017-07-01T00:35:06.561Z,14.30
2017-07-01T00:37:33.368Z,14.30
2017-07-01T00:39:59.421Z,14.20
2017-07-01T00:42:25.469Z,14.30
2017-07-01T00:44:51.504Z,14.30
2017-07-01T00:47:17.535Z,14.30
2017-07-01T00:49:43.600Z,14.30
2017-07-01T00:52:09.669Z,14.30
2017-07-01T00:54:35.744Z,14.30
2017-07-01T00:57:01.793Z,14.30
2017-07-01T00:59:27.846Z,14.30
2017-07-01T01:01:53.889Z,14.30
2017-07-01T01:04:19.925Z,14.20
2017-07-01T01:06:45.965Z,14.30
2017-07-01T01:09:12.036Z,14.20
2017-07-01T01:11:38.121Z,14.30
2017-07-01T01:14:04.169Z,14.30
2017-07-01T01:16:30.206Z,14.30
2017-07-01T01:18:56.266Z,14.30
2017-07-01T01:21:22.292Z,14.30
2017-07-01T01:23:48.374Z,14.20
2017-07-01T01:26:14.397Z,14.20
2017-07-01T01:28:40.484Z,14.20
2017-07-01T01:31:07.275Z,14.30
2017-07-01T01:33:33.335Z,14.30
2017-07-01T01:35:59.387Z,14.30
2017-07-01T01:38:25.453Z,14.30
2017-07-01T01:40:51.496Z,14.30
2017-07-01T01:43:17.593Z,14.30
2017-07-01T01:45:43.630Z,14.30
2017-07-01T01:48:09.707Z,14.30
2017-07-01T01:50:35.773Z,14.30
2017-07-01T01:53:01.838Z,14.30
2017-07-01T01:55:27.877Z,14.30
2017-07-01T01:57:53.915Z,14.40
2017-07-01T02:00:19.968Z,14.40
2017-07-01T02:02:46.020Z,14.40
2017-07-01T02:05:12.832Z,14.50
2017-07-01T02:07:38.881Z,14.40
2017-07-01T02:10:04.940Z,14.50
2017-07-01T02:12:30.964Z,14.50
2017-07-01T02:14:56.992Z,14.50
2017-07-01T02:17:26.945Z,14.40
2017-07-01T02:19:52.985Z,14.30
2017-07-01T02:22:26.709Z,14.30
2017-07-01T02:24:54.763Z,14.30
2017-07-01T02:27:20.804Z,14.30
2017-07-01T02:29:46.846Z,14.30
2017-07-01T02:32:13.613Z,14.20
2017-07-01T02:35:06.828Z,14.20
2017-07-01T02:37:33.589Z,14.30
2017-07-01T02:39:59.630Z,14.20
2017-07-01T02:42:25.665Z,14.30
2017-07-01T02:44:52.445Z,14.30
2017-07-01T02:47:30.745Z,14.20
2017-07-01T02:49:57.856Z,14.30
2017-07-01T02:52:36.285Z,14.20
2017-07-01T02:55:13.389Z,14.30
2017-07-01T02:57:39.409Z,14.30
2017-07-01T03:00:05.454Z,14.30
2017-07-01T03:02:34.329Z,14.30
2017-07-01T03:05:00.368Z,14.40
2017-07-01T03:07:26.397Z,14.30
2017-07-01T03:09:52.436Z,14.40
2017-07-01T03:12:18.458Z,14.40
2017-07-01T03:14:44.489Z,14.30
2017-07-01T03:17:10.516Z,14.40
2017-07-01T03:19:36.609Z,14.40
2017-07-01T03:22:02.661Z,14.30
2017-07-01T03:24:28.688Z,14.30
2017-07-01T03:26:54.795Z,14.30
2017-07-01T03:29:23.872Z,14.30
2017-07-01T03:31:49.905Z,14.30
2017-07-01T03:34:15.935Z,14.30
2017-07-01T03:36:41.990Z,14.40
2017-07-01T03:39:20.457Z,14.40
2017-07-01T03:41:59.712Z,14.50
2017-07-01T03:44:36.000Z,14.40
2017-07-01T03:47:02.065Z,14.40
2017-07-01T03:49:29.005Z,14.40
2017-07-01T03:51:55.053Z,14.40
2017-07-01T03:54:21.077Z,14.40
2017-07-01T03:56:47.154Z,14.40
2017-07-01T03:59:13.196Z,14.40
2017-07-01T04:01:39.285Z,14.40
2017-07-01T04:04:05.364Z,14.40
2017-07-01T04:06:31.389Z,14.30
2017-07-01T04:08:57.441Z,14.30
2017-07-01T04:11:24.237Z,14.30
2017-07-01T04:13:50.317Z,14.30
2017-07-01T04:16:16.381Z,14.40
2017-07-01T04:18:42.410Z,14.40
2017-07-01T04:21:08.514Z,14.40
2017-07-01T04:23:34.572Z,14.40
2017-07-01T04:26:00.625Z,14.40
2017-07-01T04:28:27.402Z,14.40
2017-07-01T04:30:53.464Z,14.40
2017-07-01T04:33:20.229Z,14.50
2017-07-01T04:35:46.261Z,14.50
2017-07-01T04:38:16.186Z,14.50
2017-07-01T04:40:42.225Z,14.60
2017-07-01T04:43:15.230Z,14.70
2017-07-01T04:45:41.300Z,14.70
2017-07-01T04:48:11.180Z,14.70
2017-07-01T04:50:48.325Z,14.70
2017-07-01T04:53:14.373Z,14.70
2017-07-01T04:55:40.410Z,14.70
2017-07-01T04:58:06.449Z,14.70
2017-07-01T05:00:34.349Z,14.70
2017-07-01T05:03:00.381Z,14.70
2017-07-01T05:05:38.665Z,14.70
2017-07-01T05:08:09.599Z,14.80
2017-07-01T05:10:41.516Z,14.80
2017-07-01T05:13:08.302Z,14.90
2017-07-01T05:15:39.300Z,14.90
2017-07-01T05:18:05.356Z,15.00
2017-07-01T05:20:34.325Z,15.00
2017-07-01T05:23:06.289Z,15.00
2017-07-01T05:25:43.212Z,14.90
2017-07-01T05:28:09.241Z,14.90
2017-07-01T05:30:36.158Z,14.90
2017-07-01T05:33:02.210Z,14.90
2017-07-01T05:35:35.925Z,14.90
2017-07-01T05:38:01.972Z,14.90
2017-07-01T05:40:28.010Z,14.90
2017-07-01T05:42:56.897Z,14.90
2017-07-01T05:45:24.901Z,15.00
2017-07-01T05:47:50.929Z,15.00
2017-07-01T05:50:16.949Z,15.00
2017-07-01T05:52:43.010Z,15.00
2017-07-01T05:55:09.020Z,15.00
2017-07-01T05:57:35.024Z,15.00
2017-07-01T06:00:01.087Z,15.00
2017-07-01T06:02:27.947Z,15.10
2017-07-01T06:04:53.985Z,15.10
2017-07-01T06:07:20.049Z,15.10
2017-07-01T06:10:18.977Z,15.20
2017-07-01T06:12:45.770Z,15.30
2017-07-01T06:15:18.133Z,15.30
2017-07-01T06:17:44.177Z,15.30
2017-07-01T06:20:16.376Z,15.30
2017-07-01T06:22:49.641Z,15.30
2017-07-01T06:25:16.409Z,15.30
2017-07-01T06:27:47.221Z,15.30
2017-07-01T06:30:15.065Z,15.30
2017-07-01T06:32:53.566Z,15.40
2017-07-01T06:35:30.677Z,15.40
2017-07-01T06:38:14.492Z,15.30
2017-07-01T06:40:53.469Z,15.40
2017-07-01T06:43:19.500Z,15.40
2017-07-01T06:45:45.562Z,15.40
2017-07-01T06:48:19.656Z,15.40
2017-07-01T06:50:45.693Z,15.40
2017-07-01T06:53:11.725Z,15.50
2017-07-01T06:55:37.763Z,15.50
2017-07-01T06:58:03.791Z,15.60
2017-07-01T07:00:29.813Z,15.70
2017-07-01T07:02:55.868Z,15.70
2017-07-01T07:05:21.913Z,15.70
2017-07-01T07:07:47.969Z,15.70
2017-07-01T07:10:13.994Z,15.80
2017-07-01T07:12:40.028Z,15.80
2017-07-01T07:15:06.809Z,15.80
2017-07-01T07:17:32.885Z,15.80
2017-07-01T07:19:58.927Z,15.80
2017-07-01T07:22:24.993Z,15.80
2017-07-01T07:24:51.029Z,15.80
2017-07-01T07:27:17.049Z,15.80
2017-07-01T07:29:43.125Z,15.90
2017-07-01T07:32:09.860Z,15.80
2017-07-01T07:34:35.892Z,15.70
2017-07-01T07:37:01.929Z,15.90
2017-07-01T07:39:27.921Z,15.90
2017-07-01T07:41:53.941Z,16.00
2017-07-01T07:44:19.977Z,16.00
2017-07-01T07:46:46.776Z,16.00
2017-07-01T07:49:12.830Z,15.90
2017-07-01T07:51:38.861Z,16.00
2017-07-01T07:54:04.944Z,15.90
2017-07-01T07:56:30.983Z,16.00
2017-07-01T07:58:57.034Z,16.00
2017-07-01T08:01:23.814Z,16.00
2017-07-01T08:03:49.844Z,16.00
2017-07-01T08:06:15.901Z,16.00
2017-07-01T08:08:41.933Z,16.00
2017-07-01T08:11:07.994Z,16.10
2017-07-01T08:13:34.041Z,16.10
2017-07-01T08:16:00.093Z,16.20
2017-07-01T08:18:26.129Z,16.20
2017-07-01T08:20:52.170Z,16.10
2017-07-01T08:23:18.195Z,16.20
2017-07-01T08:25:51.217Z,16.10
2017-07-01T08:28:17.988Z,16.30
2017-07-01T08:30:44.029Z,16.20
2017-07-01T08:33:10.109Z,16.30
2017-07-01T08:35:36.232Z,16.40
2017-07-01T08:38:02.266Z,16.40
2017-07-01T08:40:28.290Z,16.40
2017-07-01T08:42:55.072Z,16.30
2017-07-01T08:45:21.096Z,16.30
2017-07-01T08:47:47.146Z,16.40
2017-07-01T08:50:13.212Z,16.50
2017-07-01T08:52:39.251Z,16.60
2017-07-01T08:55:05.898Z,16.60
2017-07-01T08:57:32.276Z,16.70
2017-07-01T08:59:58.305Z,16.70
2017-07-01T09:02:24.354Z,16.90
2017-07-01T09:04:50.389Z,16.90
2017-07-01T09:07:16.466Z,17.00
2017-07-01T09:09:42.794Z,17.10
2017-07-01T09:12:09.134Z,17.10
2017-07-01T09:14:35.186Z,17.20
2017-07-01T09:17:01.213Z,17.30
2017-07-01T09:19:27.244Z,17.30
2017-07-01T09:21:53.266Z,17.40
2017-07-01T09:24:19.301Z,17.40
2017-07-01T09:29:19.970Z,17.40
2017-07-01T09:31:46.000Z,17.40
2017-07-01T09:34:12.049Z,17.40
2017-07-01T09:36:38.829Z,17.40
2017-07-01T09:39:04.860Z,17.40
2017-07-01T09:41:31.649Z,17.40
2017-07-01T09:43:57.677Z,17.40
2017-07-01T09:46:23.816Z,17.40
2017-07-01T09:48:50.628Z,17.20
2017-07-01T09:51:16.855Z,17.20
2017-07-01T09:53:42.978Z,17.20
2017-07-01T09:56:09.029Z,17.20
2017-07-01T09:58:35.044Z,17.20
2017-07-01T10:01:01.086Z,17.10
2017-07-01T10:03:27.114Z,17.20
2017-07-01T10:05:53.157Z,17.30
2017-07-01T10:08:19.192Z,17.30
2017-07-01T10:10:45.238Z,17.20
2017-07-01T10:13:12.018Z,17.30
2017-07-01T10:15:38.105Z,17.30
2017-07-01T10:18:04.144Z,17.30
2017-07-01T10:20:30.201Z,17.40
2017-07-01T10:22:56.232Z,17.40
2017-07-01T10:25:22.252Z,17.40
2017-07-01T10:27:48.332Z,17.40
2017-07-01T10:30:14.408Z,17.40
2017-07-01T10:32:41.237Z,17.40
2017-07-01T10:35:07.272Z,17.40
2017-07-01T10:37:33.392Z,17.40
2017-07-01T10:39:59.481Z,17.50
2017-07-01T10:42:25.528Z,17.50
2017-07-01T10:44:51.581Z,17.60
2017-07-01T10:47:17.609Z,17.80
2017-07-01T10:49:44.384Z,17.80
2017-07-01T10:52:10.417Z,17.80
2017-07-01T10:54:36.449Z,17.90
2017-07-01T10:57:02.466Z,17.80
2017-07-01T10:59:29.264Z,17.80
2017-07-01T11:01:55.301Z,17.80
2017-07-01T11:04:22.057Z,17.50
2017-07-01T11:06:48.122Z,17.50
2017-07-01T11:09:14.904Z,17.40
2017-07-01T11:11:40.981Z,17.40
2017-07-01T11:14:07.004Z,17.40
2017-07-01T11:16:33.057Z,17.40
2017-07-01T11:18:59.097Z,17.40
2017-07-01T11:21:25.893Z,17.50
2017-07-01T11:23:51.960Z,17.50
2017-07-01T11:26:17.997Z,17.50
2017-07-01T11:28:44.031Z,17.40
2017-07-01T11:31:10.833Z,17.50
2017-07-01T11:33:36.921Z,17.40
2017-07-01T11:36:02.971Z,17.50
2017-07-01T11:38:29.021Z,17.40
2017-07-01T11:40:55.079Z,17.50
2017-07-01T11:43:21.129Z,17.40
2017-07-01T11:45:47.149Z,17.40
2017-07-01T11:48:13.193Z,17.50
2017-07-01T11:50:40.427Z,17.60
2017-07-01T11:53:08.369Z,17.90
2017-07-01T11:55:34.444Z,17.90
2017-07-01T11:58:00.437Z,18.10
2017-07-01T12:00:26.505Z,18.20
2017-07-01T12:02:52.570Z,18.10
2017-07-01T12:05:18.616Z,18.10
2017-07-01T12:07:44.624Z,18.10
2017-07-01T12:10:10.649Z,18.10
2017-07-01T12:12:36.673Z,18.10
2017-07-01T12:15:02.731Z,18.10
2017-07-01T12:17:28.754Z,18.10
2017-07-01T12:19:54.805Z,18.00
2017-07-01T12:22:21.589Z,18.10
2017-07-01T12:24:47.629Z,18.10
2017-07-01T12:27:13.653Z,18.10
2017-07-01T12:29:39.668Z,18.10
2017-07-01T12:32:06.465Z,17.90
2017-07-01T12:34:32.488Z,17.90
2017-07-01T12:36:58.525Z,17.80
2017-07-01T12:39:25.287Z,17.70
2017-07-01T12:41:51.321Z,17.70
2017-07-01T12:44:17.344Z,17.70
2017-07-01T12:46:43.392Z,17.70
2017-07-01T12:49:09.452Z,17.80
2017-07-01T12:51:35.506Z,17.80
2017-07-01T12:54:01.535Z,17.90
2017-07-01T12:56:27.562Z,18.10
2017-07-01T12:58:53.620Z,18.20
2017-07-01T13:01:19.668Z,18.20
2017-07-01T13:03:45.735Z,18.40
2017-07-01T13:06:11.785Z,18.50
2017-07-01T13:08:37.876Z,18.60
2017-07-01T13:11:03.942Z,18.70
2017-07-01T13:13:29.997Z,18.60
2017-07-01T13:15:56.057Z,18.60
2017-07-01T13:18:22.085Z,18.70
2017-07-01T13:20:48.861Z,18.70
2017-07-01T13:23:14.893Z,18.70
2017-07-01T13:25:40.940Z,18.70
2017-07-01T13:28:06.985Z,18.80
2017-07-01T13:30:33.052Z,18.90
2017-07-01T13:32:59.121Z,18.90
2017-07-01T13:35:25.157Z,19.00
2017-07-01T13:37:51.937Z,19.00
2017-07-01T13:40:17.956Z,19.00
2017-07-01T13:42:43.993Z,18.90
2017-07-01T13:45:10.036Z,18.80
2017-07-01T13:47:36.078Z,18.80
2017-07-01T13:50:02.157Z,18.70
2017-07-01T13:52:28.189Z,18.70
2017-07-01T13:54:54.208Z,18.70
2017-07-01T13:57:20.229Z,18.70
2017-07-01T13:59:46.256Z,18.60
2017-07-01T14:02:13.041Z,18.60
2017-07-01T14:04:39.141Z,18.60
2017-07-01T14:07:05.173Z,18.60
2017-07-01T14:09:31.206Z,18.60
2017-07-01T14:11:57.218Z,18.60
2017-07-01T14:14:23.245Z,18.70
2017-07-01T14:16:49.264Z,18.70
2017-07-01T14:19:15.309Z,18.80
2017-07-01T14:21:41.326Z,18.80
2017-07-01T14:24:07.345Z,18.90
2017-07-01T14:26:33.382Z,18.90
2017-07-01T14:29:00.167Z,19.00
2017-07-01T14:31:26.204Z,19.00
2017-07-01T14:33:52.217Z,19.00
2017-07-01T14:36:18.253Z,19.00
2017-07-01T14:38:44.265Z,19.00
2017-07-01T14:41:10.309Z,19.10
2017-07-01T14:43:36.329Z,19.10
2017-07-01T14:46:02.362Z,19.10
2017-07-01T14:48:29.124Z,19.10
2017-07-01T14:50:55.172Z,19.10
2017-07-01T14:53:21.230Z,19.20
2017-07-01T14:55:47.274Z,19.30
2017-07-01T14:58:13.315Z,19.60
2017-07-01T15:00:39.377Z,19.90
2017-07-01T15:03:05.440Z,20.10
2017-07-01T15:05:32.210Z,20.60
2017-07-01T15:07:58.244Z,20.60
2017-07-01T15:10:24.258Z,20.70
2017-07-01T15:12:50.288Z,20.70
2017-07-01T15:15:17.051Z,21.00
2017-07-01T15:17:43.082Z,20.90
2017-07-01T15:20:09.113Z,21.40
2017-07-01T15:22:35.137Z,21.70
2017-07-01T15:25:01.199Z,21.90
2017-07-01T15:27:27.248Z,22.00
2017-07-01T15:29:53.288Z,21.80
2017-07-01T15:32:19.337Z,21.60
2017-07-01T15:34:45.389Z,21.50
2017-07-01T15:37:11.400Z,21.10
2017-07-01T15:39:38.194Z,20.60
2017-07-01T15:42:04.244Z,20.60
2017-07-01T15:44:30.276Z,20.80
2017-07-01T15:46:56.330Z,21.40
2017-07-01T15:49:22.357Z,21.50
2017-07-01T15:51:49.129Z,21.40
2017-07-01T15:54:15.156Z,21.40
2017-07-01T15:56:41.240Z,21.10
2017-07-01T15:59:09.217Z,20.80
2017-07-01T16:01:47.635Z,20.50
2017-07-01T16:04:14.436Z,20.00
2017-07-01T16:06:40.473Z,19.90
2017-07-01T16:09:06.526Z,19.80
2017-07-01T16:11:32.667Z,19.60
2017-07-01T16:13:58.725Z,19.40
2017-07-01T16:16:24.842Z,19.40
2017-07-01T16:18:50.896Z,19.40
2017-07-01T16:21:16.921Z,19.30
2017-07-01T16:23:42.957Z,19.30
2017-07-01T16:26:09.024Z,19.20
2017-07-01T16:28:35.073Z,19.20
2017-07-01T16:31:01.848Z,19.10
2017-07-01T16:33:27.873Z,19.00
2017-07-01T16:35:53.899Z,19.20
2017-07-01T16:38:19.949Z,19.60
2017-07-01T16:40:45.977Z,20.20
2017-07-01T16:43:12.012Z,20.40
2017-07-01T16:45:38.054Z,20.50
2017-07-01T16:48:04.842Z,20.90
2017-07-01T16:50:30.889Z,20.90
2017-07-01T16:52:57.653Z,21.30
2017-07-01T16:55:23.699Z,21.30
2017-07-01T16:57:49.721Z,21.10
2017-07-01T17:00:15.753Z,21.00
2017-07-01T17:02:41.784Z,21.10
2017-07-01T17:05:07.855Z,21.20
2017-07-01T17:07:34.668Z,21.00
2017-07-01T17:10:00.721Z,21.00
2017-07-01T17:12:26.748Z,21.00
2017-07-01T17:14:52.798Z,20.90
2017-07-01T17:17:18.825Z,20.80
2017-07-01T17:19:45.596Z,20.60
2017-07-01T17:22:18.545Z,20.60
2017-07-01T17:24:44.581Z,20.40
2017-07-01T17:27:10.645Z,20.30
2017-07-01T17:29:36.676Z,20.20
2017-07-01T17:32:02.741Z,20.20
2017-07-01T17:34:29.536Z,20.30
2017-07-01T17:36:55.628Z,20.30
2017-07-01T17:39:21.688Z,20.30
2017-07-01T17:41:47.761Z,20.40
2017-07-01T17:44:13.780Z,20.40
2017-07-01T17:46:39.806Z,20.50
2017-07-01T17:49:05.874Z,20.60
2017-07-01T17:51:31.916Z,20.50
2017-07-01T17:53:57.986Z,20.50
2017-07-01T17:56:24.016Z,20.50
2017-07-01T17:58:50.049Z,20.50
2017-07-01T18:01:16.863Z,20.40
2017-07-01T18:03:42.893Z,20.40
2017-07-01T18:06:09.657Z,20.40
2017-07-01T18:08:35.730Z,20.40
2017-07-01T18:11:02.517Z,20.60
2017-07-01T18:13:28.549Z,20.60
2017-07-01T18:15:54.588Z,20.60
2017-07-01T18:18:21.382Z,20.60
2017-07-01T18:20:48.217Z,20.60
2017-07-01T18:23:15.017Z,20.60
2017-07-01T18:25:41.052Z,20.60
2017-07-01T18:28:07.077Z,20.60
2017-07-01T18:30:33.857Z,20.40
2017-07-01T18:32:59.930Z,20.40
2017-07-01T18:35:25.997Z,20.30
2017-07-01T18:37:52.048Z,20.20
2017-07-01T18:40:18.083Z,20.10
2017-07-01T18:42:44.112Z,20.00
2017-07-01T18:45:10.148Z,20.00
2017-07-01T18:47:36.941Z,20.00
2017-07-01T18:50:02.984Z,19.90
2017-07-01T18:52:29.768Z,19.90
2017-07-01T18:54:55.788Z,19.90
2017-07-01T18:57:21.817Z,19.90
2017-07-01T18:59:47.864Z,19.70
2017-07-01T19:02:13.909Z,19.60
2017-07-01T19:04:39.933Z,19.50
2017-07-01T19:07:05.957Z,19.50
2017-07-01T19:09:31.973Z,19.40
2017-07-01T19:11:58.776Z,19.20
2017-07-01T19:14:24.825Z,19.20
2017-07-01T19:16:50.869Z,19.10
2017-07-01T19:19:16.888Z,19.00
2017-07-01T19:21:42.924Z,18.90
2017-07-01T19:24:09.700Z,18.80
2017-07-01T19:26:35.733Z,18.70
2017-07-01T19:29:01.764Z,18.60
2017-07-01T19:31:27.837Z,18.50
2017-07-01T19:33:53.870Z,18.40
2017-07-01T19:36:19.914Z,18.30
2017-07-01T19:38:45.945Z,18.20
2017-07-01T19:41:11.991Z,18.30
2017-07-01T19:43:38.045Z,18.30
2017-07-01T19:46:04.076Z,18.20
2017-07-01T19:48:30.121Z,18.10
2017-07-01T19:50:56.157Z,18.00
2017-07-01T19:53:22.212Z,17.90
2017-07-01T19:55:48.249Z,17.80
2017-07-01T19:58:14.283Z,17.70
2017-07-01T20:00:41.101Z,17.50
2017-07-01T20:03:07.135Z,17.50
2017-07-01T20:05:33.173Z,17.40
2017-07-01T20:07:59.235Z,17.30
2017-07-01T20:10:26.025Z,17.30
2017-07-01T20:12:52.073Z,17.20
2017-07-01T20:15:18.128Z,17.20
2017-07-01T20:17:44.189Z,17.10
2017-07-01T20:20:10.977Z,17.00
2017-07-01T20:22:37.021Z,16.90
2017-07-01T20:25:03.041Z,16.90
2017-07-01T20:27:29.109Z,16.80
2017-07-01T20:29:55.141Z,16.70
2017-07-01T20:32:21.169Z,16.70
2017-07-01T20:34:47.222Z,16.60
2017-07-01T20:37:13.257Z,16.60
2017-07-01T20:39:39.280Z,16.50
2017-07-01T20:42:06.089Z,16.40
2017-07-01T20:44:32.148Z,16.40
2017-07-01T20:46:58.205Z,16.40
2017-07-01T20:49:24.246Z,16.40
2017-07-01T20:51:51.036Z,16.30
2017-07-01T20:54:17.069Z,16.30
2017-07-01T20:56:43.832Z,16.30
2017-07-01T20:59:09.877Z,16.30
2017-07-01T21:01:35.933Z,16.40
2017-07-01T21:04:01.995Z,16.30
2017-07-01T21:06:28.042Z,16.30
2017-07-01T21:08:54.829Z,16.30
2017-07-01T21:11:20.889Z,16.30
2017-07-01T21:13:46.929Z,16.30
2017-07-01T21:16:12.981Z,16.40
2017-07-01T21:18:39.765Z,16.30
2017-07-01T21:21:05.825Z,16.30
2017-07-01T21:23:31.851Z,16.30
2017-07-01T21:25:57.909Z,16.30
2017-07-01T21:28:23.954Z,16.20
2017-07-01T21:30:50.741Z,16.10
2017-07-01T21:33:16.769Z,16.10
2017-07-01T21:35:42.816Z,16.10
2017-07-01T21:38:08.848Z,16.00
2017-07-01T21:40:34.937Z,15.90
2017-07-01T21:43:01.815Z,15.90
2017-07-01T21:45:28.628Z,15.90
2017-07-01T21:47:54.680Z,15.80
2017-07-01T21:50:21.437Z,15.70
2017-07-01T21:52:47.475Z,15.70
2017-07-01T21:55:13.520Z,15.70
2017-07-01T21:57:40.293Z,15.70
2017-07-01T22:00:06.369Z,15.60
2017-07-01T22:02:32.457Z,15.70
2017-07-01T22:04:58.488Z,15.60
2017-07-01T22:07:24.517Z,15.60
2017-07-01T22:09:50.550Z,15.60
2017-07-01T22:12:16.586Z,15.60
2017-07-01T22:14:43.397Z,15.50
2017-07-01T22:17:09.423Z,15.50
2017-07-01T22:19:35.450Z,15.50
2017-07-01T22:22:01.472Z,15.40
2017-07-01T22:24:27.507Z,15.40
2017-07-01T22:27:00.477Z,15.40
2017-07-01T22:29:26.538Z,15.30
2017-07-01T22:31:53.312Z,15.20
2017-07-01T22:34:19.381Z,15.20
2017-07-01T22:36:45.412Z,15.30
2017-07-01T22:39:11.441Z,15.20
2017-07-01T22:41:37.491Z,15.20
2017-07-01T22:44:03.496Z,15.10
2017-07-01T22:46:29.529Z,15.10
2017-07-01T22:48:55.553Z,15.10
2017-07-01T22:51:21.608Z,15.10
2017-07-01T22:53:47.643Z,15.10
2017-07-01T22:56:13.704Z,15.10
2017-07-01T22:58:39.728Z,15.20
2017-07-01T23:01:05.800Z,15.20
2017-07-01T23:03:31.848Z,15.10
2017-07-01T23:05:57.909Z,15.10
2017-07-01T23:08:23.962Z,15.10
2017-07-01T23:10:49.984Z,15.00
2017-07-01T23:13:16.037Z,15.10
2017-07-01T23:15:42.080Z,15.10
2017-07-01T23:18:08.130Z,15.10
2017-07-01T23:20:34.904Z,15.10
2017-07-01T23:23:00.941Z,15.10
2017-07-01T23:25:26.972Z,15.10
2017-07-01T23:27:53.773Z,15.20
2017-07-01T23:30:19.836Z,15.20
2017-07-01T23:32:45.888Z,15.20
2017-07-01T23:35:11.916Z,15.10
2017-07-01T23:37:37.933Z,15.10
2017-07-01T23:40:03.990Z,15.20
2017-07-01T23:42:30.019Z,15.20
2017-07-01T23:44:56.072Z,15.20
2017-07-01T23:47:22.119Z,15.20
2017-07-01T23:49:48.181Z,15.10
2017-07-01T23:52:14.225Z,15.10
2017-07-01T23:54:40.261Z,15.00
2017-07-01T23:57:06.315Z,15.10
2017-07-01T23:59:32.405Z,15.20
